sensor_id;sensor_type;location;lat;lon;timestamp;P1;durP1;ratioP1;P2;durP2;ratioP2
68250;SDS011;55066;51.560;4.642;2023-04-09T00:01:19;37.03;;;15.90;;
68250;SDS011;55066;51.560;4.642;2023-04-09T00:03:45;32.35;;;15.60;;
68250;SDS011;55066;51.560;4.642;2023-04-09T00:06:10;36.33;;;16.30;;
68250;SDS011;55066;51.560;4.642;2023-04-09T00:08:37;34.90;;;15.50;;
68250;SDS011;55066;51.560;4.642;2023-04-09T00:11:02;32.23;;;15.23;;
68250;SDS011;55066;51.560;4.642;2023-04-09T00:13:28;35.17;;;15.77;;
68250;SDS011;55066;51.560;4.642;2023-04-09T00:15:53;35.85;;;16.75;;
68250;SDS011;55066;51.560;4.642;2023-04-09T00:18:19;32.20;;;15.60;;
68250;SDS011;55066;51.560;4.642;2023-04-09T00:20:44;35.40;;;16.23;;
68250;SDS011;55066;51.560;4.642;2023-04-09T00:23:10;35.95;;;16.25;;
68250;SDS011;55066;51.560;4.642;2023-04-09T00:25:35;32.73;;;15.30;;
68250;SDS011;55066;51.560;4.642;2023-04-09T00:28:01;35.22;;;16.27;;
68250;SDS011;55066;51.560;4.642;2023-04-09T00:30:27;35.53;;;15.50;;
68250;SDS011;55066;51.560;4.642;2023-04-09T00:32:54;34.90;;;15.93;;
68250;SDS011;55066;51.560;4.642;2023-04-09T00:35:20;38.85;;;17.77;;
68250;SDS011;55066;51.560;4.642;2023-04-09T00:37:45;39.67;;;17.23;;
68250;SDS011;55066;51.560;4.642;2023-04-09T00:40:11;33.65;;;15.98;;
68250;SDS011;55066;51.560;4.642;2023-04-09T00:42:36;35.70;;;16.50;;
68250;SDS011;55066;51.560;4.642;2023-04-09T00:45:02;33.28;;;15.90;;
68250;SDS011;55066;51.560;4.642;2023-04-09T00:47:29;36.10;;;15.60;;
68250;SDS011;55066;51.560;4.642;2023-04-09T00:49:55;33.40;;;15.25;;
68250;SDS011;55066;51.560;4.642;2023-04-09T00:52:21;34.70;;;15.95;;
68250;SDS011;55066;51.560;4.642;2023-04-09T00:54:48;32.78;;;15.20;;
68250;SDS011;55066;51.560;4.642;2023-04-09T00:57:15;32.75;;;15.85;;
68250;SDS011;55066;51.560;4.642;2023-04-09T00:59:45;32.60;;;15.57;;
68250;SDS011;55066;51.560;4.642;2023-04-09T01:02:10;35.78;;;15.50;;
68250;SDS011;55066;51.560;4.642;2023-04-09T01:04:36;31.02;;;14.63;;
68250;SDS011;55066;51.560;4.642;2023-04-09T01:07:11;32.30;;;15.00;;
68250;SDS011;55066;51.560;4.642;2023-04-09T01:10:16;31.73;;;14.63;;
68250;SDS011;55066;51.560;4.642;2023-04-09T01:15:14;30.08;;;13.93;;
68250;SDS011;55066;51.560;4.642;2023-04-09T01:17:49;34.03;;;14.27;;
68250;SDS011;55066;51.560;4.642;2023-04-09T01:20:29;31.35;;;14.43;;
68250;SDS011;55066;51.560;4.642;2023-04-09T01:23:10;32.17;;;15.70;;
68250;SDS011;55066;51.560;4.642;2023-04-09T01:25:43;27.75;;;13.32;;
68250;SDS011;55066;51.560;4.642;2023-04-09T01:28:38;30.17;;;14.10;;
68250;SDS011;55066;51.560;4.642;2023-04-09T01:31:28;30.98;;;14.40;;
68250;SDS011;55066;51.560;4.642;2023-04-09T01:33:56;33.08;;;13.48;;
68250;SDS011;55066;51.560;4.642;2023-04-09T01:36:24;27.98;;;13.35;;
68250;SDS011;55066;51.560;4.642;2023-04-09T01:38:51;30.08;;;13.85;;
68250;SDS011;55066;51.560;4.642;2023-04-09T01:41:19;31.30;;;14.02;;
68250;SDS011;55066;51.560;4.642;2023-04-09T01:43:46;30.23;;;13.88;;
68250;SDS011;55066;51.560;4.642;2023-04-09T01:46:15;28.58;;;13.60;;
68250;SDS011;55066;51.560;4.642;2023-04-09T01:48:43;29.67;;;13.43;;
68250;SDS011;55066;51.560;4.642;2023-04-09T01:51:10;30.45;;;13.70;;
68250;SDS011;55066;51.560;4.642;2023-04-09T01:53:38;31.80;;;14.73;;
68250;SDS011;55066;51.560;4.642;2023-04-09T01:56:05;32.35;;;14.63;;
68250;SDS011;55066;51.560;4.642;2023-04-09T01:58:31;34.90;;;15.38;;
68250;SDS011;55066;51.560;4.642;2023-04-09T02:01:04;39.00;;;16.48;;
68250;SDS011;55066;51.560;4.642;2023-04-09T02:03:38;32.42;;;15.85;;
68250;SDS011;55066;51.560;4.642;2023-04-09T02:06:16;36.42;;;16.80;;
68250;SDS011;55066;51.560;4.642;2023-04-09T02:08:51;38.42;;;16.58;;
68250;SDS011;55066;51.560;4.642;2023-04-09T02:11:17;35.08;;;16.75;;
68250;SDS011;55066;51.560;4.642;2023-04-09T02:13:45;39.53;;;17.77;;
68250;SDS011;55066;51.560;4.642;2023-04-09T02:16:14;41.92;;;18.88;;
68250;SDS011;55066;51.560;4.642;2023-04-09T02:18:40;42.33;;;18.80;;
68250;SDS011;55066;51.560;4.642;2023-04-09T02:21:05;47.40;;;19.07;;
68250;SDS011;55066;51.560;4.642;2023-04-09T02:23:31;54.17;;;21.03;;
68250;SDS011;55066;51.560;4.642;2023-04-09T02:25:57;53.67;;;20.65;;
68250;SDS011;55066;51.560;4.642;2023-04-09T02:28:24;53.40;;;21.98;;
68250;SDS011;55066;51.560;4.642;2023-04-09T02:30:50;51.13;;;21.73;;
68250;SDS011;55066;51.560;4.642;2023-04-09T02:33:15;54.40;;;20.10;;
68250;SDS011;55066;51.560;4.642;2023-04-09T02:35:41;52.73;;;20.70;;
68250;SDS011;55066;51.560;4.642;2023-04-09T02:38:07;51.88;;;20.75;;
68250;SDS011;55066;51.560;4.642;2023-04-09T02:40:39;53.43;;;20.63;;
68250;SDS011;55066;51.560;4.642;2023-04-09T02:43:06;58.85;;;22.15;;
68250;SDS011;55066;51.560;4.642;2023-04-09T02:45:32;55.22;;;21.90;;
68250;SDS011;55066;51.560;4.642;2023-04-09T02:47:58;56.77;;;22.80;;
68250;SDS011;55066;51.560;4.642;2023-04-09T02:50:23;51.47;;;20.23;;
68250;SDS011;55066;51.560;4.642;2023-04-09T02:52:51;53.20;;;21.50;;
68250;SDS011;55066;51.560;4.642;2023-04-09T02:55:17;51.13;;;20.90;;
68250;SDS011;55066;51.560;4.642;2023-04-09T02:57:43;50.78;;;20.55;;
68250;SDS011;55066;51.560;4.642;2023-04-09T03:00:09;56.65;;;21.58;;
68250;SDS011;55066;51.560;4.642;2023-04-09T03:02:35;51.13;;;20.35;;
68250;SDS011;55066;51.560;4.642;2023-04-09T03:05:01;58.17;;;23.50;;
68250;SDS011;55066;51.560;4.642;2023-04-09T03:07:27;57.38;;;22.30;;
68250;SDS011;55066;51.560;4.642;2023-04-09T03:09:52;54.40;;;22.00;;
68250;SDS011;55066;51.560;4.642;2023-04-09T03:12:18;56.63;;;21.98;;
68250;SDS011;55066;51.560;4.642;2023-04-09T03:14:43;62.63;;;23.80;;
68250;SDS011;55066;51.560;4.642;2023-04-09T03:17:09;58.20;;;22.37;;
68250;SDS011;55066;51.560;4.642;2023-04-09T03:19:34;57.65;;;22.40;;
68250;SDS011;55066;51.560;4.642;2023-04-09T03:22:00;60.03;;;22.43;;
68250;SDS011;55066;51.560;4.642;2023-04-09T03:24:30;59.72;;;23.02;;
68250;SDS011;55066;51.560;4.642;2023-04-09T03:26:59;61.90;;;23.42;;
68250;SDS011;55066;51.560;4.642;2023-04-09T03:29:24;60.37;;;23.00;;
68250;SDS011;55066;51.560;4.642;2023-04-09T03:31:50;62.53;;;24.50;;
68250;SDS011;55066;51.560;4.642;2023-04-09T03:34:16;59.63;;;22.47;;
68250;SDS011;55066;51.560;4.642;2023-04-09T03:36:42;61.03;;;22.88;;
68250;SDS011;55066;51.560;4.642;2023-04-09T03:39:14;62.78;;;23.20;;
68250;SDS011;55066;51.560;4.642;2023-04-09T03:41:45;59.50;;;22.87;;
68250;SDS011;55066;51.560;4.642;2023-04-09T03:44:14;65.70;;;23.13;;
68250;SDS011;55066;51.560;4.642;2023-04-09T03:46:53;61.65;;;22.40;;
68250;SDS011;55066;51.560;4.642;2023-04-09T03:49:19;59.37;;;22.80;;
68250;SDS011;55066;51.560;4.642;2023-04-09T03:51:44;62.10;;;23.52;;
68250;SDS011;55066;51.560;4.642;2023-04-09T03:54:11;60.20;;;22.80;;
68250;SDS011;55066;51.560;4.642;2023-04-09T03:56:37;56.90;;;22.10;;
68250;SDS011;55066;51.560;4.642;2023-04-09T03:59:06;62.70;;;22.55;;
68250;SDS011;55066;51.560;4.642;2023-04-09T04:01:41;60.28;;;22.20;;
68250;SDS011;55066;51.560;4.642;2023-04-09T04:04:07;64.72;;;23.58;;
68250;SDS011;55066;51.560;4.642;2023-04-09T04:06:42;54.60;;;22.05;;
68250;SDS011;55066;51.560;4.642;2023-04-09T04:09:20;59.67;;;22.37;;
68250;SDS011;55066;51.560;4.642;2023-04-09T04:11:52;61.55;;;22.88;;
68250;SDS011;55066;51.560;4.642;2023-04-09T04:14:19;56.60;;;21.73;;
68250;SDS011;55066;51.560;4.642;2023-04-09T04:16:51;57.72;;;21.58;;
68250;SDS011;55066;51.560;4.642;2023-04-09T04:19:19;58.90;;;21.83;;
68250;SDS011;55066;51.560;4.642;2023-04-09T04:21:48;56.30;;;21.70;;
68250;SDS011;55066;51.560;4.642;2023-04-09T04:24:14;55.85;;;22.13;;
68250;SDS011;55066;51.560;4.642;2023-04-09T04:26:40;56.03;;;21.20;;
68250;SDS011;55066;51.560;4.642;2023-04-09T04:29:06;54.40;;;21.48;;
68250;SDS011;55066;51.560;4.642;2023-04-09T04:31:51;55.27;;;21.40;;
68250;SDS011;55066;51.560;4.642;2023-04-09T04:34:20;50.17;;;20.60;;
68250;SDS011;55066;51.560;4.642;2023-04-09T04:36:51;51.67;;;20.60;;
68250;SDS011;55066;51.560;4.642;2023-04-09T04:39:17;49.15;;;21.25;;
68250;SDS011;55066;51.560;4.642;2023-04-09T04:41:59;50.37;;;20.53;;
68250;SDS011;55066;51.560;4.642;2023-04-09T04:44:28;49.97;;;19.65;;
68250;SDS011;55066;51.560;4.642;2023-04-09T04:47:06;46.67;;;20.08;;
68250;SDS011;55066;51.560;4.642;2023-04-09T04:49:32;48.10;;;19.33;;
68250;SDS011;55066;51.560;4.642;2023-04-09T04:51:59;51.05;;;19.92;;
68250;SDS011;55066;51.560;4.642;2023-04-09T04:54:24;49.33;;;19.35;;
68250;SDS011;55066;51.560;4.642;2023-04-09T04:56:53;51.87;;;19.97;;
68250;SDS011;55066;51.560;4.642;2023-04-09T04:59:30;52.88;;;19.88;;
68250;SDS011;55066;51.560;4.642;2023-04-09T05:02:00;47.47;;;18.90;;
68250;SDS011;55066;51.560;4.642;2023-04-09T05:04:29;51.47;;;20.30;;
68250;SDS011;55066;51.560;4.642;2023-04-09T05:06:55;47.22;;;19.55;;
68250;SDS011;55066;51.560;4.642;2023-04-09T05:09:22;48.73;;;18.97;;
68250;SDS011;55066;51.560;4.642;2023-04-09T05:12:04;49.60;;;19.90;;
68250;SDS011;55066;51.560;4.642;2023-04-09T05:14:33;49.20;;;20.00;;
68250;SDS011;55066;51.560;4.642;2023-04-09T05:17:01;48.03;;;19.10;;
68250;SDS011;55066;51.560;4.642;2023-04-09T05:19:37;48.63;;;19.30;;
68250;SDS011;55066;51.560;4.642;2023-04-09T05:22:02;47.97;;;19.42;;
68250;SDS011;55066;51.560;4.642;2023-04-09T05:24:28;48.17;;;19.57;;
68250;SDS011;55066;51.560;4.642;2023-04-09T05:26:53;53.37;;;20.70;;
68250;SDS011;55066;51.560;4.642;2023-04-09T05:29:20;53.13;;;20.60;;
68250;SDS011;55066;51.560;4.642;2023-04-09T05:31:46;47.90;;;19.63;;
68250;SDS011;55066;51.560;4.642;2023-04-09T05:34:22;50.70;;;21.20;;
68250;SDS011;55066;51.560;4.642;2023-04-09T05:36:51;52.05;;;21.67;;
68250;SDS011;55066;51.560;4.642;2023-04-09T05:39:20;48.47;;;19.38;;
68250;SDS011;55066;51.560;4.642;2023-04-09T05:41:48;53.08;;;20.30;;
68250;SDS011;55066;51.560;4.642;2023-04-09T05:44:34;51.70;;;20.17;;
68250;SDS011;55066;51.560;4.642;2023-04-09T05:47:05;47.88;;;18.60;;
68250;SDS011;55066;51.560;4.642;2023-04-09T05:49:39;50.05;;;20.55;;
68250;SDS011;55066;51.560;4.642;2023-04-09T05:52:09;51.97;;;19.98;;
68250;SDS011;55066;51.560;4.642;2023-04-09T05:54:35;50.80;;;20.33;;
68250;SDS011;55066;51.560;4.642;2023-04-09T05:57:02;52.03;;;21.13;;
68250;SDS011;55066;51.560;4.642;2023-04-09T05:59:30;50.90;;;20.25;;
68250;SDS011;55066;51.560;4.642;2023-04-09T06:01:55;52.23;;;21.20;;
68250;SDS011;55066;51.560;4.642;2023-04-09T06:04:22;57.50;;;22.02;;
68250;SDS011;55066;51.560;4.642;2023-04-09T06:06:48;54.10;;;21.90;;
68250;SDS011;55066;51.560;4.642;2023-04-09T06:09:13;53.15;;;21.73;;
68250;SDS011;55066;51.560;4.642;2023-04-09T06:11:39;54.03;;;21.93;;
68250;SDS011;55066;51.560;4.642;2023-04-09T06:14:05;58.28;;;23.27;;
68250;SDS011;55066;51.560;4.642;2023-04-09T06:16:31;55.57;;;21.70;;
68250;SDS011;55066;51.560;4.642;2023-04-09T06:18:57;53.97;;;21.55;;
68250;SDS011;55066;51.560;4.642;2023-04-09T06:21:23;52.57;;;20.83;;
68250;SDS011;55066;51.560;4.642;2023-04-09T06:23:48;51.65;;;20.58;;
68250;SDS011;55066;51.560;4.642;2023-04-09T06:26:14;53.57;;;21.20;;
68250;SDS011;55066;51.560;4.642;2023-04-09T06:28:39;54.67;;;21.67;;
68250;SDS011;55066;51.560;4.642;2023-04-09T06:31:05;58.33;;;23.75;;
68250;SDS011;55066;51.560;4.642;2023-04-09T06:33:30;55.90;;;21.23;;
68250;SDS011;55066;51.560;4.642;2023-04-09T06:35:56;56.77;;;22.90;;
68250;SDS011;55066;51.560;4.642;2023-04-09T06:38:21;63.97;;;22.83;;
68250;SDS011;55066;51.560;4.642;2023-04-09T06:40:47;64.07;;;23.67;;
68250;SDS011;55066;51.560;4.642;2023-04-09T06:43:12;60.23;;;23.30;;
68250;SDS011;55066;51.560;4.642;2023-04-09T06:45:46;61.13;;;23.65;;
68250;SDS011;55066;51.560;4.642;2023-04-09T06:48:11;58.30;;;23.00;;
68250;SDS011;55066;51.560;4.642;2023-04-09T06:50:37;63.70;;;23.87;;
68250;SDS011;55066;51.560;4.642;2023-04-09T06:53:02;63.72;;;25.42;;
68250;SDS011;55066;51.560;4.642;2023-04-09T06:55:28;64.70;;;25.83;;
68250;SDS011;55066;51.560;4.642;2023-04-09T06:57:53;67.43;;;26.87;;
68250;SDS011;55066;51.560;4.642;2023-04-09T07:00:19;60.50;;;24.80;;
68250;SDS011;55066;51.560;4.642;2023-04-09T07:02:47;63.90;;;24.60;;
68250;SDS011;55066;51.560;4.642;2023-04-09T07:05:13;68.93;;;26.15;;
68250;SDS011;55066;51.560;4.642;2023-04-09T07:07:38;61.88;;;24.05;;
68250;SDS011;55066;51.560;4.642;2023-04-09T07:10:04;59.97;;;23.00;;
68250;SDS011;55066;51.560;4.642;2023-04-09T07:12:31;61.05;;;24.65;;
68250;SDS011;55066;51.560;4.642;2023-04-09T07:14:57;67.53;;;26.35;;
68250;SDS011;55066;51.560;4.642;2023-04-09T07:17:27;59.45;;;24.25;;
68250;SDS011;55066;51.560;4.642;2023-04-09T07:19:55;62.40;;;24.58;;
68250;SDS011;55066;51.560;4.642;2023-04-09T07:22:21;62.33;;;24.30;;
68250;SDS011;55066;51.560;4.642;2023-04-09T07:24:48;59.60;;;23.67;;
68250;SDS011;55066;51.560;4.642;2023-04-09T07:27:27;62.33;;;25.52;;
68250;SDS011;55066;51.560;4.642;2023-04-09T07:29:55;60.67;;;24.45;;
68250;SDS011;55066;51.560;4.642;2023-04-09T07:32:24;63.13;;;24.42;;
68250;SDS011;55066;51.560;4.642;2023-04-09T07:34:52;59.77;;;23.53;;
68250;SDS011;55066;51.560;4.642;2023-04-09T07:37:18;60.78;;;23.38;;
68250;SDS011;55066;51.560;4.642;2023-04-09T07:39:49;59.42;;;21.83;;
68250;SDS011;55066;51.560;4.642;2023-04-09T07:42:23;50.83;;;19.35;;
68250;SDS011;55066;51.560;4.642;2023-04-09T07:44:52;47.70;;;18.05;;
68250;SDS011;55066;51.560;4.642;2023-04-09T07:47:23;49.90;;;20.70;;
68250;SDS011;55066;51.560;4.642;2023-04-09T07:49:49;58.72;;;22.45;;
68250;SDS011;55066;51.560;4.642;2023-04-09T07:52:14;53.87;;;20.40;;
68250;SDS011;55066;51.560;4.642;2023-04-09T07:54:40;54.60;;;22.67;;
68250;SDS011;55066;51.560;4.642;2023-04-09T07:57:05;57.88;;;23.52;;
68250;SDS011;55066;51.560;4.642;2023-04-09T07:59:33;57.57;;;22.57;;
68250;SDS011;55066;51.560;4.642;2023-04-09T08:01:58;63.05;;;24.17;;
68250;SDS011;55066;51.560;4.642;2023-04-09T08:04:24;55.57;;;22.67;;
68250;SDS011;55066;51.560;4.642;2023-04-09T08:06:51;60.47;;;23.80;;
68250;SDS011;55066;51.560;4.642;2023-04-09T08:09:18;59.90;;;23.38;;
68250;SDS011;55066;51.560;4.642;2023-04-09T08:11:44;60.85;;;23.45;;
68250;SDS011;55066;51.560;4.642;2023-04-09T08:14:11;59.08;;;24.17;;
68250;SDS011;55066;51.560;4.642;2023-04-09T08:16:38;56.87;;;23.83;;
68250;SDS011;55066;51.560;4.642;2023-04-09T08:19:05;53.58;;;22.33;;
68250;SDS011;55066;51.560;4.642;2023-04-09T08:21:30;53.33;;;21.63;;
68250;SDS011;55066;51.560;4.642;2023-04-09T08:23:56;58.40;;;23.67;;
68250;SDS011;55066;51.560;4.642;2023-04-09T08:26:25;60.80;;;23.55;;
68250;SDS011;55066;51.560;4.642;2023-04-09T08:28:50;58.10;;;24.47;;
68250;SDS011;55066;51.560;4.642;2023-04-09T08:31:16;55.38;;;22.90;;
68250;SDS011;55066;51.560;4.642;2023-04-09T08:33:41;53.90;;;23.27;;
68250;SDS011;55066;51.560;4.642;2023-04-09T08:36:07;57.30;;;23.87;;
68250;SDS011;55066;51.560;4.642;2023-04-09T08:38:33;55.67;;;23.25;;
68250;SDS011;55066;51.560;4.642;2023-04-09T08:46:16;54.35;;;23.48;;
68250;SDS011;55066;51.560;4.642;2023-04-09T08:48:43;60.20;;;23.90;;
68250;SDS011;55066;51.560;4.642;2023-04-09T08:51:13;53.55;;;22.58;;
68250;SDS011;55066;51.560;4.642;2023-04-09T08:53:43;55.28;;;22.98;;
68250;SDS011;55066;51.560;4.642;2023-04-09T08:56:11;57.50;;;23.17;;
68250;SDS011;55066;51.560;4.642;2023-04-09T08:58:41;54.88;;;22.42;;
68250;SDS011;55066;51.560;4.642;2023-04-09T09:01:29;55.20;;;22.63;;
68250;SDS011;55066;51.560;4.642;2023-04-09T09:04:06;48.58;;;20.63;;
68250;SDS011;55066;51.560;4.642;2023-04-09T09:06:36;48.63;;;18.85;;
68250;SDS011;55066;51.560;4.642;2023-04-09T09:11:39;46.92;;;20.30;;
68250;SDS011;55066;51.560;4.642;2023-04-09T09:14:10;47.77;;;20.93;;
68250;SDS011;55066;51.560;4.642;2023-04-09T09:21:55;49.88;;;21.30;;
68250;SDS011;55066;51.560;4.642;2023-04-09T09:24:21;50.72;;;22.83;;
68250;SDS011;55066;51.560;4.642;2023-04-09T09:26:47;49.27;;;22.63;;
68250;SDS011;55066;51.560;4.642;2023-04-09T09:29:15;44.95;;;20.58;;
68250;SDS011;55066;51.560;4.642;2023-04-09T09:31:50;46.72;;;23.00;;
68250;SDS011;55066;51.560;4.642;2023-04-09T09:34:17;47.47;;;20.05;;
68250;SDS011;55066;51.560;4.642;2023-04-09T09:36:44;44.78;;;18.52;;
68250;SDS011;55066;51.560;4.642;2023-04-09T09:39:10;46.05;;;20.10;;
68250;SDS011;55066;51.560;4.642;2023-04-09T09:41:40;46.38;;;21.15;;
68250;SDS011;55066;51.560;4.642;2023-04-09T09:44:06;44.97;;;20.60;;
68250;SDS011;55066;51.560;4.642;2023-04-09T09:46:36;44.50;;;19.48;;
68250;SDS011;55066;51.560;4.642;2023-04-09T09:49:03;44.92;;;20.63;;
68250;SDS011;55066;51.560;4.642;2023-04-09T09:51:30;45.25;;;20.38;;
68250;SDS011;55066;51.560;4.642;2023-04-09T09:54:02;42.33;;;20.25;;
68250;SDS011;55066;51.560;4.642;2023-04-09T09:56:29;44.63;;;19.90;;
68250;SDS011;55066;51.560;4.642;2023-04-09T09:59:06;42.30;;;18.80;;
68250;SDS011;55066;51.560;4.642;2023-04-09T10:01:37;43.78;;;20.20;;
68250;SDS011;55066;51.560;4.642;2023-04-09T10:04:04;43.10;;;21.27;;
68250;SDS011;55066;51.560;4.642;2023-04-09T10:06:31;42.67;;;20.27;;
68250;SDS011;55066;51.560;4.642;2023-04-09T10:08:59;44.83;;;20.50;;
68250;SDS011;55066;51.560;4.642;2023-04-09T10:11:30;42.38;;;19.17;;
68250;SDS011;55066;51.560;4.642;2023-04-09T10:13:58;44.15;;;20.90;;
68250;SDS011;55066;51.560;4.642;2023-04-09T10:16:25;44.33;;;19.88;;
68250;SDS011;55066;51.560;4.642;2023-04-09T10:18:55;43.65;;;21.05;;
68250;SDS011;55066;51.560;4.642;2023-04-09T10:23:57;46.30;;;23.48;;
68250;SDS011;55066;51.560;4.642;2023-04-09T10:26:24;45.63;;;21.08;;
68250;SDS011;55066;51.560;4.642;2023-04-09T10:34:15;46.78;;;20.50;;
68250;SDS011;55066;51.560;4.642;2023-04-09T10:36:42;44.28;;;21.45;;
68250;SDS011;55066;51.560;4.642;2023-04-09T10:39:11;46.90;;;22.75;;
68250;SDS011;55066;51.560;4.642;2023-04-09T10:41:43;41.57;;;20.23;;
68250;SDS011;55066;51.560;4.642;2023-04-09T10:44:19;42.33;;;20.88;;
68250;SDS011;55066;51.560;4.642;2023-04-09T10:46:54;40.17;;;19.58;;
68250;SDS011;55066;51.560;4.642;2023-04-09T10:49:24;46.55;;;21.60;;
68250;SDS011;55066;51.560;4.642;2023-04-09T10:52:00;40.97;;;20.27;;
68250;SDS011;55066;51.560;4.642;2023-04-09T10:59:34;41.63;;;21.23;;
68250;SDS011;55066;51.560;4.642;2023-04-09T11:02:00;42.10;;;20.00;;
68250;SDS011;55066;51.560;4.642;2023-04-09T11:07:26;36.07;;;18.30;;
68250;SDS011;55066;51.560;4.642;2023-04-09T11:09:54;39.45;;;19.30;;
68250;SDS011;55066;51.560;4.642;2023-04-09T11:12:19;28.67;;;13.80;;
68250;SDS011;55066;51.560;4.642;2023-04-09T11:14:45;31.08;;;16.17;;
68250;SDS011;55066;51.560;4.642;2023-04-09T11:17:11;33.47;;;16.10;;
68250;SDS011;55066;51.560;4.642;2023-04-09T11:19:37;36.05;;;19.13;;
68250;SDS011;55066;51.560;4.642;2023-04-09T11:22:05;36.67;;;19.57;;
68250;SDS011;55066;51.560;4.642;2023-04-09T11:24:41;38.72;;;19.52;;
68250;SDS011;55066;51.560;4.642;2023-04-09T11:27:07;36.70;;;19.23;;
68250;SDS011;55066;51.560;4.642;2023-04-09T11:29:36;39.87;;;19.27;;
68250;SDS011;55066;51.560;4.642;2023-04-09T11:32:01;37.03;;;19.50;;
68250;SDS011;55066;51.560;4.642;2023-04-09T11:34:29;33.97;;;17.50;;
68250;SDS011;55066;51.560;4.642;2023-04-09T11:36:57;35.30;;;17.33;;
68250;SDS011;55066;51.560;4.642;2023-04-09T11:39:26;33.42;;;17.35;;
68250;SDS011;55066;51.560;4.642;2023-04-09T11:41:51;33.40;;;16.83;;
68250;SDS011;55066;51.560;4.642;2023-04-09T11:44:17;34.57;;;17.57;;
68250;SDS011;55066;51.560;4.642;2023-04-09T11:46:44;35.55;;;19.13;;
68250;SDS011;55066;51.560;4.642;2023-04-09T11:49:11;32.60;;;18.15;;
68250;SDS011;55066;51.560;4.642;2023-04-09T11:51:37;30.05;;;15.68;;
68250;SDS011;55066;51.560;4.642;2023-04-09T11:54:06;32.27;;;18.20;;
68250;SDS011;55066;51.560;4.642;2023-04-09T11:56:33;30.40;;;14.07;;
68250;SDS011;55066;51.560;4.642;2023-04-09T11:59:00;34.67;;;16.27;;
68250;SDS011;55066;51.560;4.642;2023-04-09T12:01:29;35.07;;;17.33;;
68250;SDS011;55066;51.560;4.642;2023-04-09T12:03:56;33.08;;;17.75;;
68250;SDS011;55066;51.560;4.642;2023-04-09T12:06:22;33.60;;;17.33;;
68250;SDS011;55066;51.560;4.642;2023-04-09T12:08:55;30.80;;;16.80;;
68250;SDS011;55066;51.560;4.642;2023-04-09T12:11:26;31.48;;;15.70;;
68250;SDS011;55066;51.560;4.642;2023-04-09T12:14:15;28.23;;;15.82;;
68250;SDS011;55066;51.560;4.642;2023-04-09T12:16:42;26.60;;;15.02;;
68250;SDS011;55066;51.560;4.642;2023-04-09T12:19:12;30.77;;;14.87;;
68250;SDS011;55066;51.560;4.642;2023-04-09T12:21:54;29.45;;;16.48;;
68250;SDS011;55066;51.560;4.642;2023-04-09T12:24:23;27.30;;;15.82;;
68250;SDS011;55066;51.560;4.642;2023-04-09T12:26:49;25.85;;;15.13;;
68250;SDS011;55066;51.560;4.642;2023-04-09T12:29:16;29.20;;;16.17;;
68250;SDS011;55066;51.560;4.642;2023-04-09T12:31:43;27.33;;;14.73;;
68250;SDS011;55066;51.560;4.642;2023-04-09T12:34:09;25.90;;;14.85;;
68250;SDS011;55066;51.560;4.642;2023-04-09T12:36:36;25.00;;;14.43;;
68250;SDS011;55066;51.560;4.642;2023-04-09T12:39:02;32.80;;;15.68;;
68250;SDS011;55066;51.560;4.642;2023-04-09T12:41:28;26.70;;;15.07;;
68250;SDS011;55066;51.560;4.642;2023-04-09T12:43:54;26.23;;;14.37;;
68250;SDS011;55066;51.560;4.642;2023-04-09T12:46:19;25.27;;;14.25;;
68250;SDS011;55066;51.560;4.642;2023-04-09T12:48:45;24.57;;;13.80;;
68250;SDS011;55066;51.560;4.642;2023-04-09T12:51:11;18.58;;;9.43;;
68250;SDS011;55066;51.560;4.642;2023-04-09T12:53:37;21.75;;;13.18;;
68250;SDS011;55066;51.560;4.642;2023-04-09T12:56:03;23.90;;;13.67;;
68250;SDS011;55066;51.560;4.642;2023-04-09T12:58:29;25.03;;;13.97;;
68250;SDS011;55066;51.560;4.642;2023-04-09T13:00:55;25.20;;;13.85;;
68250;SDS011;55066;51.560;4.642;2023-04-09T13:03:21;27.52;;;13.82;;
68250;SDS011;55066;51.560;4.642;2023-04-09T13:05:48;22.98;;;12.88;;
68250;SDS011;55066;51.560;4.642;2023-04-09T13:08:13;21.60;;;12.07;;
68250;SDS011;55066;51.560;4.642;2023-04-09T13:10:39;21.35;;;10.80;;
68250;SDS011;55066;51.560;4.642;2023-04-09T13:13:05;19.45;;;11.48;;
68250;SDS011;55066;51.560;4.642;2023-04-09T13:15:39;20.17;;;10.87;;
68250;SDS011;55066;51.560;4.642;2023-04-09T13:18:11;22.35;;;12.35;;
68250;SDS011;55066;51.560;4.642;2023-04-09T13:20:36;19.40;;;10.98;;
68250;SDS011;55066;51.560;4.642;2023-04-09T13:23:02;19.30;;;10.97;;
68250;SDS011;55066;51.560;4.642;2023-04-09T13:25:28;18.70;;;10.53;;
68250;SDS011;55066;51.560;4.642;2023-04-09T13:27:54;17.60;;;10.90;;
68250;SDS011;55066;51.560;4.642;2023-04-09T13:30:20;20.58;;;10.77;;
68250;SDS011;55066;51.560;4.642;2023-04-09T13:32:46;20.23;;;11.43;;
68250;SDS011;55066;51.560;4.642;2023-04-09T13:35:11;19.60;;;10.55;;
68250;SDS011;55066;51.560;4.642;2023-04-09T13:37:37;19.23;;;11.60;;
68250;SDS011;55066;51.560;4.642;2023-04-09T13:40:02;19.07;;;11.33;;
68250;SDS011;55066;51.560;4.642;2023-04-09T13:42:28;23.35;;;12.35;;
68250;SDS011;55066;51.560;4.642;2023-04-09T13:44:53;20.67;;;11.40;;
68250;SDS011;55066;51.560;4.642;2023-04-09T13:47:19;18.13;;;10.43;;
68250;SDS011;55066;51.560;4.642;2023-04-09T13:49:45;19.38;;;10.88;;
68250;SDS011;55066;51.560;4.642;2023-04-09T13:52:10;18.70;;;10.50;;
68250;SDS011;55066;51.560;4.642;2023-04-09T13:54:36;18.55;;;10.27;;
68250;SDS011;55066;51.560;4.642;2023-04-09T13:57:01;20.07;;;10.73;;
68250;SDS011;55066;51.560;4.642;2023-04-09T13:59:27;20.40;;;10.55;;
68250;SDS011;55066;51.560;4.642;2023-04-09T14:01:53;19.67;;;10.57;;
68250;SDS011;55066;51.560;4.642;2023-04-09T14:04:18;19.53;;;11.00;;
68250;SDS011;55066;51.560;4.642;2023-04-09T14:06:47;19.37;;;11.00;;
68250;SDS011;55066;51.560;4.642;2023-04-09T14:09:13;16.47;;;9.23;;
68250;SDS011;55066;51.560;4.642;2023-04-09T14:11:39;18.85;;;10.30;;
68250;SDS011;55066;51.560;4.642;2023-04-09T14:14:05;17.77;;;10.10;;
68250;SDS011;55066;51.560;4.642;2023-04-09T14:16:30;20.00;;;9.83;;
68250;SDS011;55066;51.560;4.642;2023-04-09T14:18:56;17.77;;;8.80;;
68250;SDS011;55066;51.560;4.642;2023-04-09T14:21:21;15.15;;;8.75;;
68250;SDS011;55066;51.560;4.642;2023-04-09T14:23:47;17.37;;;8.83;;
68250;SDS011;55066;51.560;4.642;2023-04-09T14:26:13;17.42;;;9.50;;
68250;SDS011;55066;51.560;4.642;2023-04-09T14:28:40;17.10;;;8.67;;
68250;SDS011;55066;51.560;4.642;2023-04-09T14:31:05;14.60;;;8.57;;
68250;SDS011;55066;51.560;4.642;2023-04-09T14:33:31;16.80;;;9.23;;
68250;SDS011;55066;51.560;4.642;2023-04-09T14:35:56;16.17;;;8.77;;
68250;SDS011;55066;51.560;4.642;2023-04-09T14:38:22;16.23;;;7.53;;
68250;SDS011;55066;51.560;4.642;2023-04-09T14:40:48;15.13;;;8.47;;
68250;SDS011;55066;51.560;4.642;2023-04-09T14:43:14;13.65;;;7.90;;
68250;SDS011;55066;51.560;4.642;2023-04-09T14:45:40;15.40;;;8.20;;
68250;SDS011;55066;51.560;4.642;2023-04-09T14:48:05;15.15;;;7.95;;
68250;SDS011;55066;51.560;4.642;2023-04-09T14:50:31;14.37;;;8.60;;
68250;SDS011;55066;51.560;4.642;2023-04-09T14:52:58;15.02;;;8.13;;
68250;SDS011;55066;51.560;4.642;2023-04-09T14:55:25;13.90;;;7.93;;
68250;SDS011;55066;51.560;4.642;2023-04-09T14:57:51;14.83;;;7.80;;
68250;SDS011;55066;51.560;4.642;2023-04-09T15:00:19;13.65;;;8.10;;